createdAt,value
2022-07-29T00:03:35.904Z,50.80
2022-07-29T00:07:53.342Z,50.40
2022-07-29T00:12:07.077Z,50.50
2022-07-29T00:16:23.130Z,50.70
2022-07-29T00:20:37.589Z,51.00
2022-07-29T00:24:51.216Z,50.80
2022-07-29T00:29:33.107Z,51.00
2022-07-29T00:33:39.608Z,51.40
2022-07-29T00:37:54.118Z,51.20
2022-07-29T00:42:08.050Z,51.60
2022-07-29T00:46:21.160Z,52.10
2022-07-29T00:50:34.948Z,52.00
2022-07-29T00:54:49.412Z,52.40
2022-07-29T00:59:02.732Z,52.90
2022-07-29T01:03:16.190Z,53.00
2022-07-29T01:07:30.885Z,53.00
2022-07-29T01:11:46.809Z,53.60
2022-07-29T01:16:09.372Z,54.10
2022-07-29T01:20:31.372Z,54.30
2022-07-29T01:25:02.096Z,54.70
2022-07-29T01:29:23.647Z,54.70
2022-07-29T01:33:53.177Z,55.00
2022-07-29T01:38:11.643Z,54.90
2022-07-29T01:42:32.627Z,54.60
2022-07-29T01:46:54.307Z,55.40
2022-07-29T01:51:15.008Z,55.90
2022-07-29T01:55:34.206Z,55.90
2022-07-29T01:59:49.415Z,56.30
2022-07-29T02:04:06.467Z,56.40
2022-07-29T02:08:22.093Z,56.90
2022-07-29T02:12:36.631Z,57.10
2022-07-29T02:16:52.256Z,57.30
2022-07-29T02:21:07.339Z,57.00
2022-07-29T02:25:37.535Z,57.50
2022-07-29T02:29:54.348Z,57.40
2022-07-29T02:34:10.482Z,57.50
2022-07-29T02:38:43.357Z,57.90
2022-07-29T02:42:57.015Z,57.50
2022-07-29T02:47:15.688Z,58.20
2022-07-29T02:51:43.737Z,58.40
2022-07-29T02:56:01.645Z,57.80
2022-07-29T03:00:16.251Z,58.50
2022-07-29T03:04:30.955Z,58.60
2022-07-29T03:08:46.150Z,58.60
2022-07-29T03:13:01.885Z,58.70
2022-07-29T03:17:15.575Z,58.40
2022-07-29T03:21:31.196Z,58.50
2022-07-29T03:25:45.432Z,58.60
2022-07-29T03:29:59.886Z,59.20
2022-07-29T03:34:13.255Z,59.90
2022-07-29T03:38:29.420Z,60.20
2022-07-29T03:42:44.616Z,60.70
2022-07-29T03:47:02.976Z,62.40
2022-07-29T03:51:16.526Z,61.60
2022-07-29T03:55:33.151Z,62.50
2022-07-29T03:59:47.393Z,63.20
2022-07-29T04:04:02.990Z,63.60
2022-07-29T04:08:16.131Z,63.80
2022-07-29T04:12:29.202Z,63.90
2022-07-29T04:16:42.295Z,65.00
2022-07-29T04:20:56.753Z,63.50
2022-07-29T04:25:10.618Z,62.40
2022-07-29T04:29:24.006Z,61.90
2022-07-29T04:33:37.175Z,63.40
2022-07-29T04:37:51.651Z,63.10
2022-07-29T04:42:04.961Z,62.60
2022-07-29T04:46:22.157Z,62.80
2022-07-29T04:50:35.268Z,61.60
2022-07-29T04:54:49.709Z,60.00
2022-07-29T04:59:02.925Z,60.50
2022-07-29T05:03:16.071Z,59.80
2022-07-29T05:07:29.242Z,58.90
2022-07-29T05:11:43.690Z,58.30
2022-07-29T05:15:56.874Z,57.90
2022-07-29T05:20:11.051Z,56.90
2022-07-29T05:24:24.212Z,57.50
2022-07-29T05:28:38.818Z,55.30
2022-07-29T05:32:52.004Z,52.90
2022-07-29T05:37:05.111Z,52.60
2022-07-29T05:41:18.208Z,52.50
2022-07-29T05:45:32.626Z,51.80
2022-07-29T05:49:47.129Z,50.80
2022-07-29T05:54:00.304Z,49.50
2022-07-29T05:58:13.589Z,49.50
2022-07-29T06:02:28.071Z,50.30
2022-07-29T06:06:41.187Z,49.90
2022-07-29T06:10:54.288Z,49.40
2022-07-29T06:15:08.714Z,48.70
2022-07-29T06:19:23.456Z,48.20
2022-07-29T06:23:36.576Z,47.60
2022-07-29T06:27:49.831Z,47.80
2022-07-29T06:32:03.287Z,47.90
2022-07-29T06:36:17.807Z,56.50
2022-07-29T06:40:48.823Z,59.40
2022-07-29T06:45:05.032Z,59.50
2022-07-29T06:49:22.188Z,59.00
2022-07-29T06:53:37.523Z,58.60
2022-07-29T06:57:50.625Z,58.70
2022-07-29T07:02:04.664Z,58.20
2022-07-29T07:06:17.850Z,58.10
2022-07-29T07:10:32.632Z,58.10
2022-07-29T07:14:45.788Z,57.90
2022-07-29T07:18:58.943Z,57.10
2022-07-29T07:23:12.206Z,58.10
2022-07-29T07:27:27.684Z,57.50
2022-07-29T07:31:41.113Z,57.40
2022-07-29T07:35:54.339Z,46.80
2022-07-29T07:40:08.524Z,46.10
2022-07-29T07:44:23.745Z,45.70
2022-07-29T07:48:37.231Z,45.60
2022-07-29T07:52:52.106Z,44.80
2022-07-29T07:57:05.412Z,45.00
2022-07-29T08:01:22.315Z,45.00
2022-07-29T08:05:35.477Z,45.20
2022-07-29T08:09:52.591Z,44.50
2022-07-29T08:14:05.745Z,45.10
2022-07-29T08:18:20.262Z,44.70
2022-07-29T08:22:33.454Z,43.80
2022-07-29T08:26:46.593Z,44.10
2022-07-29T08:30:59.776Z,43.70
2022-07-29T08:35:14.287Z,43.70
2022-07-29T08:39:27.864Z,43.70
2022-07-29T08:43:42.829Z,43.60
2022-07-29T08:47:57.444Z,43.90
2022-07-29T08:52:13.032Z,43.30
2022-07-29T08:56:26.295Z,43.60
2022-07-29T09:00:43.487Z,43.20
2022-07-29T09:05:02.338Z,43.20
2022-07-29T09:09:17.658Z,42.30
2022-07-29T09:13:30.940Z,42.20
2022-07-29T09:17:45.599Z,42.00
2022-07-29T09:22:00.217Z,42.10
2022-07-29T09:26:14.873Z,42.30
2022-07-29T09:30:31.689Z,42.10
2022-07-29T09:34:45.154Z,41.50
2022-07-29T09:39:02.152Z,40.90
2022-07-29T09:43:16.684Z,40.50
2022-07-29T09:47:46.077Z,42.00
2022-07-29T09:52:07.359Z,40.90
2022-07-29T09:56:20.584Z,39.50
2022-07-29T10:00:44.605Z,39.30
2022-07-29T10:04:57.923Z,38.90
2022-07-29T10:09:11.760Z,38.00
2022-07-29T10:13:27.765Z,38.30
2022-07-29T10:17:43.185Z,38.00
2022-07-29T10:21:58.207Z,38.50
2022-07-29T10:26:13.102Z,38.30
2022-07-29T10:30:27.501Z,38.70
2022-07-29T10:35:16.733Z,37.70
2022-07-29T10:39:45.162Z,36.50
2022-07-29T10:44:05.716Z,34.70
2022-07-29T10:48:20.288Z,33.60
2022-07-29T10:53:04.954Z,34.80
2022-07-29T10:57:54.151Z,34.50
2022-07-29T11:02:15.979Z,34.20
2022-07-29T11:07:10.371Z,34.70
2022-07-29T11:11:43.733Z,34.10
2022-07-29T11:16:00.840Z,34.30
2022-07-29T11:20:42.490Z,34.00
2022-07-29T11:25:16.719Z,33.30
2022-07-29T11:29:33.598Z,32.30
2022-07-29T11:33:56.418Z,32.30
2022-07-29T11:38:28.578Z,33.10
2022-07-29T11:42:47.546Z,32.90
2022-07-29T11:47:05.754Z,32.60
2022-07-29T11:51:20.298Z,32.30
2022-07-29T11:55:51.141Z,31.60
2022-07-29T12:00:12.599Z,31.40
2022-07-29T12:04:28.949Z,32.10
2022-07-29T12:08:44.354Z,32.00
2022-07-29T12:12:57.880Z,31.50
2022-07-29T12:17:30.567Z,31.90
2022-07-29T12:21:53.857Z,30.90
2022-07-29T12:26:10.978Z,30.80
2022-07-29T12:30:41.587Z,29.50
2022-07-29T12:34:54.912Z,29.40
2022-07-29T12:39:10.234Z,30.10
2022-07-29T12:43:24.626Z,30.10
2022-07-29T12:47:55.339Z,31.00
2022-07-29T12:52:26.496Z,31.30
2022-07-29T12:56:43.280Z,33.50
2022-07-29T13:01:17.351Z,34.60
2022-07-29T13:05:45.748Z,35.40
2022-07-29T13:10:14.444Z,36.60
2022-07-29T13:14:36.865Z,37.90
2022-07-29T13:18:50.091Z,38.60
2022-07-29T13:23:03.364Z,39.60
2022-07-29T13:27:17.117Z,40.50
2022-07-29T13:31:32.323Z,41.50
2022-07-29T13:35:45.489Z,42.70
2022-07-29T13:39:58.900Z,44.30
2022-07-29T13:44:12.546Z,47.40
2022-07-29T13:48:27.335Z,51.90
2022-07-29T13:52:40.581Z,56.20
2022-07-29T13:56:53.896Z,58.10
2022-07-29T14:01:07.108Z,59.90
2022-07-29T14:05:21.959Z,62.60
2022-07-29T14:09:41.084Z,66.20
2022-07-29T14:13:54.859Z,69.30
2022-07-29T14:18:08.044Z,74.30
2022-07-29T14:22:25.377Z,77.90
2022-07-29T14:26:38.804Z,80.70
2022-07-29T14:30:52.061Z,83.50
2022-07-29T14:35:05.709Z,83.80
2022-07-29T14:39:20.222Z,85.70
2022-07-29T14:43:33.353Z,88.20
2022-07-29T14:47:46.705Z,90.20
2022-07-29T14:52:00.216Z,89.80
2022-07-29T14:56:36.146Z,89.40
2022-07-29T15:00:49.306Z,90.30
2022-07-29T15:05:03.012Z,90.00
2022-07-29T15:09:16.304Z,90.20
2022-07-29T15:13:30.803Z,90.20
2022-07-29T15:17:46.915Z,88.80
2022-07-29T15:22:00.142Z,88.30
2022-07-29T15:26:13.346Z,88.70
2022-07-29T15:30:32.951Z,87.80
2022-07-29T15:34:48.280Z,85.30
2022-07-29T15:39:01.416Z,81.40
2022-07-29T15:43:14.885Z,79.50
2022-07-29T15:47:32.214Z,77.90
2022-07-29T15:51:45.537Z,78.40
2022-07-29T15:55:58.821Z,76.60
2022-07-29T16:00:13.736Z,74.30
2022-07-29T16:04:28.724Z,72.10
2022-07-29T16:08:45.006Z,71.60
2022-07-29T16:12:58.201Z,71.40
2022-07-29T16:17:14.449Z,71.60
2022-07-29T16:21:31.588Z,74.60
2022-07-29T16:25:59.190Z,72.20
2022-07-29T16:30:14.083Z,70.90
2022-07-29T16:34:27.241Z,65.30
2022-07-29T16:38:47.300Z,58.70
2022-07-29T16:43:00.742Z,59.00
2022-07-29T16:47:13.882Z,59.30
2022-07-29T16:51:27.179Z,56.80
2022-07-29T16:55:42.013Z,53.20
2022-07-29T16:59:55.806Z,49.90
2022-07-29T17:04:09.286Z,48.80
2022-07-29T17:08:22.877Z,48.80
2022-07-29T17:12:38.090Z,48.80
2022-07-29T17:16:51.667Z,49.40
2022-07-29T17:21:13.964Z,48.30
2022-07-29T17:25:27.102Z,47.50
2022-07-29T17:29:41.979Z,49.00
2022-07-29T17:33:58.337Z,50.70
2022-07-29T17:38:13.118Z,52.30
2022-07-29T17:42:26.286Z,53.10
2022-07-29T17:46:41.318Z,52.40
2022-07-29T17:55:10.383Z,53.20
2022-07-29T17:59:23.568Z,53.30
2022-07-29T18:03:38.215Z,52.90
2022-07-29T18:07:54.613Z,53.10
2022-07-29T18:12:08.776Z,54.20
2022-07-29T18:16:21.938Z,55.40
2022-07-29T18:20:36.519Z,56.60
2022-07-29T18:24:49.692Z,59.30
2022-07-29T18:29:02.920Z,60.30
2022-07-29T18:33:22.108Z,63.60
2022-07-29T18:38:02.258Z,64.40
2022-07-29T18:42:10.609Z,66.10
2022-07-29T18:46:23.788Z,66.50
2022-07-29T18:50:38.716Z,65.80
2022-07-29T18:54:53.275Z,65.90
2022-07-29T18:59:06.698Z,65.90
2022-07-29T19:03:20.954Z,65.90
2022-07-29T19:07:34.216Z,65.90
2022-07-29T19:11:51.933Z,66.20
2022-07-29T19:16:11.719Z,67.30
2022-07-29T19:20:27.254Z,68.00
2022-07-29T19:24:40.557Z,68.30
2022-07-29T19:28:55.365Z,69.10
2022-07-29T19:33:08.543Z,70.50
2022-07-29T19:37:22.077Z,70.20
2022-07-29T19:41:35.293Z,70.00
2022-07-29T19:45:49.830Z,70.00
2022-07-29T19:50:03.023Z,70.20
2022-07-29T19:54:18.289Z,70.70
2022-07-29T19:58:31.498Z,72.00
2022-07-29T20:02:47.559Z,72.90
2022-07-29T20:07:01.797Z,73.80
2022-07-29T20:11:15.303Z,74.20
2022-07-29T20:15:28.597Z,75.30
2022-07-29T20:19:43.659Z,75.60
2022-07-29T20:24:00.399Z,76.00
2022-07-29T20:28:13.525Z,77.90
2022-07-29T20:32:27.864Z,77.60
2022-07-29T20:36:42.450Z,78.80
2022-07-29T20:40:58.623Z,79.50
2022-07-29T20:45:13.506Z,79.10
2022-07-29T20:49:26.776Z,80.10
2022-07-29T20:53:41.723Z,79.40
2022-07-29T20:57:54.864Z,79.90
2022-07-29T21:02:08.457Z,78.90
2022-07-29T21:06:22.485Z,79.40
2022-07-29T21:10:42.838Z,80.00
2022-07-29T21:14:57.148Z,82.50
2022-07-29T21:19:10.262Z,82.40
2022-07-29T21:23:23.407Z,81.10
2022-07-29T21:27:55.369Z,80.10
2022-07-29T21:32:08.667Z,82.10
2022-07-29T21:36:47.112Z,82.10
2022-07-29T21:40:55.212Z,82.80
2022-07-29T21:45:10.557Z,83.00
2022-07-29T21:49:24.969Z,83.60
2022-07-29T21:53:38.103Z,83.00
2022-07-29T21:57:54.332Z,81.90
2022-07-29T22:02:38.869Z,82.30
2022-07-29T22:06:52.028Z,81.40
2022-07-29T22:11:05.258Z,81.90
2022-07-29T22:15:24.270Z,81.90
2022-07-29T22:19:38.891Z,81.20
2022-07-29T22:23:52.003Z,82.10
2022-07-29T22:28:10.842Z,81.70
2022-07-29T22:32:24.096Z,81.80
2022-07-29T22:36:38.726Z,81.50
2022-07-29T22:40:53.536Z,81.90
2022-07-29T22:45:13.830Z,82.60
2022-07-29T22:49:27.155Z,83.00
2022-07-29T22:53:46.810Z,83.50
2022-07-29T22:58:02.453Z,83.30
2022-07-29T23:02:15.622Z,83.20
2022-07-29T23:06:28.765Z,83.60
2022-07-29T23:10:45.019Z,81.20
2022-07-29T23:14:58.134Z,81.70
2022-07-29T23:19:11.303Z,81.40
2022-07-29T23:23:24.716Z,82.80
2022-07-29T23:27:46.128Z,83.30
2022-07-29T23:31:59.326Z,82.90
2022-07-29T23:36:17.074Z,84.70
2022-07-29T23:40:30.655Z,84.90
2022-07-29T23:44:45.157Z,84.60
2022-07-29T23:49:01.622Z,84.70
2022-07-29T23:53:14.835Z,84.90
2022-07-29T23:57:34.388Z,84.90
